sensor_id;sensor_type;location;lat;lon;timestamp;temperature;humidity
21275;DHT22;36472;52.170;20.884;2023-06-04T00:02:18;27.50;35.50
21275;DHT22;36472;52.170;20.884;2023-06-04T00:04:47;27.50;35.40
21275;DHT22;36472;52.170;20.884;2023-06-04T00:07:18;27.50;35.50
21275;DHT22;36472;52.170;20.884;2023-06-04T00:09:47;27.40;35.60
21275;DHT22;36472;52.170;20.884;2023-06-04T00:12:16;27.50;35.70
21275;DHT22;36472;52.170;20.884;2023-06-04T00:14:45;27.50;35.70
21275;DHT22;36472;52.170;20.884;2023-06-04T00:17:14;27.50;35.90
21275;DHT22;36472;52.170;20.884;2023-06-04T00:19:43;27.50;35.80
21275;DHT22;36472;52.170;20.884;2023-06-04T00:22:12;27.50;35.90
21275;DHT22;36472;52.170;20.884;2023-06-04T00:24:42;27.50;35.80
21275;DHT22;36472;52.170;20.884;2023-06-04T00:27:11;27.50;35.90
21275;DHT22;36472;52.170;20.884;2023-06-04T00:29:40;27.40;35.80
21275;DHT22;36472;52.170;20.884;2023-06-04T00:32:09;27.50;35.90
21275;DHT22;36472;52.170;20.884;2023-06-04T00:34:38;27.50;36.00
21275;DHT22;36472;52.170;20.884;2023-06-04T00:37:07;27.50;36.30
21275;DHT22;36472;52.170;20.884;2023-06-04T00:39:36;27.40;36.10
21275;DHT22;36472;52.170;20.884;2023-06-04T00:42:07;27.40;36.30
21275;DHT22;36472;52.170;20.884;2023-06-04T00:44:36;27.40;36.30
21275;DHT22;36472;52.170;20.884;2023-06-04T00:47:05;27.30;36.40
21275;DHT22;36472;52.170;20.884;2023-06-04T00:49:34;27.20;36.40
21275;DHT22;36472;52.170;20.884;2023-06-04T00:52:04;27.20;36.60
21275;DHT22;36472;52.170;20.884;2023-06-04T00:54:33;27.20;36.90
21275;DHT22;36472;52.170;20.884;2023-06-04T00:57:04;27.20;36.80
21275;DHT22;36472;52.170;20.884;2023-06-04T00:59:37;27.10;37.00
21275;DHT22;36472;52.170;20.884;2023-06-04T01:02:12;27.10;36.90
21275;DHT22;36472;52.170;20.884;2023-06-04T01:04:54;27.10;36.90
21275;DHT22;36472;52.170;20.884;2023-06-04T01:07:29;27.10;37.10
21275;DHT22;36472;52.170;20.884;2023-06-04T01:09:58;27.00;37.10
21275;DHT22;36472;52.170;20.884;2023-06-04T01:12:28;27.00;37.10
21275;DHT22;36472;52.170;20.884;2023-06-04T01:14:59;26.90;37.10
21275;DHT22;36472;52.170;20.884;2023-06-04T01:17:34;26.80;36.90
21275;DHT22;36472;52.170;20.884;2023-06-04T01:20:16;26.80;37.20
21275;DHT22;36472;52.170;20.884;2023-06-04T01:23:13;26.80;37.30
21275;DHT22;36472;52.170;20.884;2023-06-04T01:25:49;26.80;37.10
21275;DHT22;36472;52.170;20.884;2023-06-04T01:28:20;26.80;37.20
21275;DHT22;36472;52.170;20.884;2023-06-04T01:30:50;26.80;37.40
21275;DHT22;36472;52.170;20.884;2023-06-04T01:33:20;26.80;37.20
21275;DHT22;36472;52.170;20.884;2023-06-04T01:35:49;26.80;37.20
21275;DHT22;36472;52.170;20.884;2023-06-04T01:38:19;26.80;37.30
21275;DHT22;36472;52.170;20.884;2023-06-04T01:40:49;26.80;37.20
21275;DHT22;36472;52.170;20.884;2023-06-04T01:43:20;26.80;37.40
21275;DHT22;36472;52.170;20.884;2023-06-04T01:45:50;26.80;37.50
21275;DHT22;36472;52.170;20.884;2023-06-04T01:48:19;26.70;37.30
21275;DHT22;36472;52.170;20.884;2023-06-04T01:50:48;26.70;37.30
21275;DHT22;36472;52.170;20.884;2023-06-04T01:53:18;26.70;37.40
21275;DHT22;36472;52.170;20.884;2023-06-04T01:55:47;26.80;37.40
21275;DHT22;36472;52.170;20.884;2023-06-04T01:58:16;26.80;37.40
21275;DHT22;36472;52.170;20.884;2023-06-04T02:00:51;26.70;37.40
21275;DHT22;36472;52.170;20.884;2023-06-04T02:03:22;26.70;37.40
21275;DHT22;36472;52.170;20.884;2023-06-04T02:05:51;26.70;37.50
21275;DHT22;36472;52.170;20.884;2023-06-04T02:08:20;26.70;37.60
21275;DHT22;36472;52.170;20.884;2023-06-04T02:10:53;26.70;37.60
21275;DHT22;36472;52.170;20.884;2023-06-04T02:13:22;26.70;37.50
21275;DHT22;36472;52.170;20.884;2023-06-04T02:15:52;26.70;37.60
21275;DHT22;36472;52.170;20.884;2023-06-04T02:18:21;26.70;37.50
21275;DHT22;36472;52.170;20.884;2023-06-04T02:20:50;26.60;37.70
21275;DHT22;36472;52.170;20.884;2023-06-04T02:23:20;26.60;37.70
21275;DHT22;36472;52.170;20.884;2023-06-04T02:25:49;26.60;37.60
21275;DHT22;36472;52.170;20.884;2023-06-04T02:28:18;26.60;37.50
21275;DHT22;36472;52.170;20.884;2023-06-04T02:30:47;26.60;37.40
21275;DHT22;36472;52.170;20.884;2023-06-04T02:33:18;26.60;37.80
21275;DHT22;36472;52.170;20.884;2023-06-04T02:35:48;26.60;37.50
21275;DHT22;36472;52.170;20.884;2023-06-04T02:38:18;26.60;37.30
21275;DHT22;36472;52.170;20.884;2023-06-04T02:40:46;26.60;37.40
21275;DHT22;36472;52.170;20.884;2023-06-04T02:43:16;26.60;37.40
21275;DHT22;36472;52.170;20.884;2023-06-04T02:45:45;26.60;37.50
21275;DHT22;36472;52.170;20.884;2023-06-04T02:48:14;26.70;37.80
21275;DHT22;36472;52.170;20.884;2023-06-04T02:50:44;26.60;37.60
21275;DHT22;36472;52.170;20.884;2023-06-04T02:53:13;26.60;37.60
21275;DHT22;36472;52.170;20.884;2023-06-04T02:55:42;26.50;37.40
21275;DHT22;36472;52.170;20.884;2023-06-04T02:58:11;26.60;37.70
21275;DHT22;36472;52.170;20.884;2023-06-04T03:00:41;26.60;37.50
21275;DHT22;36472;52.170;20.884;2023-06-04T03:03:10;26.60;37.60
21275;DHT22;36472;52.170;20.884;2023-06-04T03:05:39;26.60;37.60
21275;DHT22;36472;52.170;20.884;2023-06-04T03:08:11;26.60;37.30
21275;DHT22;36472;52.170;20.884;2023-06-04T03:10:40;26.70;37.30
21275;DHT22;36472;52.170;20.884;2023-06-04T03:13:10;26.60;37.20
21275;DHT22;36472;52.170;20.884;2023-06-04T03:15:38;26.70;37.30
21275;DHT22;36472;52.170;20.884;2023-06-04T03:18:08;26.60;37.40
21275;DHT22;36472;52.170;20.884;2023-06-04T03:20:36;26.70;37.60
21275;DHT22;36472;52.170;20.884;2023-06-04T03:23:06;26.60;37.80
21275;DHT22;36472;52.170;20.884;2023-06-04T03:25:36;26.60;37.90
21275;DHT22;36472;52.170;20.884;2023-06-04T03:28:06;26.60;37.90
21275;DHT22;36472;52.170;20.884;2023-06-04T03:30:34;26.60;37.90
21275;DHT22;36472;52.170;20.884;2023-06-04T03:33:07;26.60;37.90
21275;DHT22;36472;52.170;20.884;2023-06-04T03:35:36;26.60;37.90
21275;DHT22;36472;52.170;20.884;2023-06-04T03:38:05;26.60;38.10
21275;DHT22;36472;52.170;20.884;2023-06-04T03:40:36;26.60;38.40
21275;DHT22;36472;52.170;20.884;2023-06-04T03:43:06;26.70;38.50
21275;DHT22;36472;52.170;20.884;2023-06-04T03:45:36;26.70;38.40
21275;DHT22;36472;52.170;20.884;2023-06-04T03:48:06;26.70;37.90
21275;DHT22;36472;52.170;20.884;2023-06-04T03:50:37;26.70;38.10
21275;DHT22;36472;52.170;20.884;2023-06-04T03:53:06;26.70;37.90
21275;DHT22;36472;52.170;20.884;2023-06-04T03:55:37;26.70;37.90
21275;DHT22;36472;52.170;20.884;2023-06-04T03:58:08;26.70;37.60
21275;DHT22;36472;52.170;20.884;2023-06-04T04:00:43;26.80;37.50
21275;DHT22;36472;52.170;20.884;2023-06-04T04:03:13;26.80;37.10
21275;DHT22;36472;52.170;20.884;2023-06-04T04:05:44;26.90;36.80
21275;DHT22;36472;52.170;20.884;2023-06-04T04:08:13;27.00;37.00
21275;DHT22;36472;52.170;20.884;2023-06-04T04:10:46;27.00;36.50
21275;DHT22;36472;52.170;20.884;2023-06-04T04:13:15;27.10;36.70
21275;DHT22;36472;52.170;20.884;2023-06-04T04:15:44;27.20;36.50
21275;DHT22;36472;52.170;20.884;2023-06-04T04:18:14;27.30;36.90
21275;DHT22;36472;52.170;20.884;2023-06-04T04:20:45;27.30;36.00
21275;DHT22;36472;52.170;20.884;2023-06-04T04:23:14;27.40;35.90
21275;DHT22;36472;52.170;20.884;2023-06-04T04:25:47;27.50;36.10
21275;DHT22;36472;52.170;20.884;2023-06-04T04:28:17;27.60;36.20
21275;DHT22;36472;52.170;20.884;2023-06-04T04:30:47;27.60;36.40
21275;DHT22;36472;52.170;20.884;2023-06-04T04:33:17;27.70;36.20
21275;DHT22;36472;52.170;20.884;2023-06-04T04:35:47;27.80;36.30
21275;DHT22;36472;52.170;20.884;2023-06-04T04:38:19;27.80;36.50
21275;DHT22;36472;52.170;20.884;2023-06-04T04:41:00;27.90;36.00
21275;DHT22;36472;52.170;20.884;2023-06-04T04:43:32;28.00;35.40
21275;DHT22;36472;52.170;20.884;2023-06-04T04:46:21;28.10;35.10
21275;DHT22;36472;52.170;20.884;2023-06-04T04:48:51;28.20;34.60
21275;DHT22;36472;52.170;20.884;2023-06-04T04:51:21;28.30;34.70
21275;DHT22;36472;52.170;20.884;2023-06-04T04:53:52;28.30;35.00
21275;DHT22;36472;52.170;20.884;2023-06-04T04:56:25;28.50;34.90
21275;DHT22;36472;52.170;20.884;2023-06-04T04:58:55;28.50;34.90
21275;DHT22;36472;52.170;20.884;2023-06-04T05:01:24;28.60;35.00
21275;DHT22;36472;52.170;20.884;2023-06-04T05:03:54;28.70;35.10
21275;DHT22;36472;52.170;20.884;2023-06-04T05:06:23;28.70;34.20
21275;DHT22;36472;52.170;20.884;2023-06-04T05:08:52;28.90;33.80
21275;DHT22;36472;52.170;20.884;2023-06-04T05:11:21;28.90;33.60
21275;DHT22;36472;52.170;20.884;2023-06-04T05:13:52;29.00;33.20
21275;DHT22;36472;52.170;20.884;2023-06-04T05:16:21;29.10;33.70
21275;DHT22;36472;52.170;20.884;2023-06-04T05:18:50;29.20;33.80
21275;DHT22;36472;52.170;20.884;2023-06-04T05:21:23;29.30;33.70
21275;DHT22;36472;52.170;20.884;2023-06-04T05:23:58;29.50;33.50
21275;DHT22;36472;52.170;20.884;2023-06-04T05:26:32;29.60;33.60
21275;DHT22;36472;52.170;20.884;2023-06-04T05:29:08;29.60;33.50
21275;DHT22;36472;52.170;20.884;2023-06-04T05:31:40;29.70;33.50
21275;DHT22;36472;52.170;20.884;2023-06-04T05:34:12;29.90;33.70
21275;DHT22;36472;52.170;20.884;2023-06-04T05:36:44;29.90;33.10
21275;DHT22;36472;52.170;20.884;2023-06-04T05:39:14;30.00;33.40
21275;DHT22;36472;52.170;20.884;2023-06-04T05:41:55;30.10;32.70
21275;DHT22;36472;52.170;20.884;2023-06-04T05:44:26;30.20;32.50
21275;DHT22;36472;52.170;20.884;2023-06-04T05:46:55;30.40;32.60
21275;DHT22;36472;52.170;20.884;2023-06-04T05:49:24;30.70;32.30
21275;DHT22;36472;52.170;20.884;2023-06-04T05:51:56;30.90;32.10
21275;DHT22;36472;52.170;20.884;2023-06-04T05:54:26;31.00;31.90
21275;DHT22;36472;52.170;20.884;2023-06-04T05:56:55;31.20;31.10
21275;DHT22;36472;52.170;20.884;2023-06-04T05:59:26;31.20;30.40
21275;DHT22;36472;52.170;20.884;2023-06-04T06:01:55;31.10;29.80
21275;DHT22;36472;52.170;20.884;2023-06-04T06:04:24;30.90;29.50
21275;DHT22;36472;52.170;20.884;2023-06-04T06:06:55;31.20;29.60
21275;DHT22;36472;52.170;20.884;2023-06-04T06:09:24;31.40;30.00
21275;DHT22;36472;52.170;20.884;2023-06-04T06:11:53;31.60;30.00
21275;DHT22;36472;52.170;20.884;2023-06-04T06:14:22;31.90;30.20
21275;DHT22;36472;52.170;20.884;2023-06-04T06:16:53;31.90;29.90
21275;DHT22;36472;52.170;20.884;2023-06-04T06:33:06;32.60;30.10
21275;DHT22;36472;52.170;20.884;2023-06-04T06:35:35;32.70;29.70
21275;DHT22;36472;52.170;20.884;2023-06-04T06:42:36;33.10;29.90
21275;DHT22;36472;52.170;20.884;2023-06-04T06:45:06;33.20;29.80
21275;DHT22;36472;52.170;20.884;2023-06-04T06:47:35;33.40;29.40
21275;DHT22;36472;52.170;20.884;2023-06-04T06:50:07;33.50;29.60
21275;DHT22;36472;52.170;20.884;2023-06-04T06:52:36;33.50;28.80
21275;DHT22;36472;52.170;20.884;2023-06-04T06:59:37;33.60;29.50
21275;DHT22;36472;52.170;20.884;2023-06-04T07:02:07;33.50;29.20
21275;DHT22;36472;52.170;20.884;2023-06-04T07:04:36;33.30;29.20
21275;DHT22;36472;52.170;20.884;2023-06-04T07:07:06;33.50;29.00
21275;DHT22;36472;52.170;20.884;2023-06-04T07:09:36;33.50;29.20
21275;DHT22;36472;52.170;20.884;2023-06-04T07:12:05;33.50;28.80
21275;DHT22;36472;52.170;20.884;2023-06-04T07:14:35;33.60;28.70
21275;DHT22;36472;52.170;20.884;2023-06-04T07:17:04;33.60;28.60
21275;DHT22;36472;52.170;20.884;2023-06-04T07:19:33;33.70;28.40
21275;DHT22;36472;52.170;20.884;2023-06-04T07:22:02;33.80;28.70
21275;DHT22;36472;52.170;20.884;2023-06-04T07:24:33;33.80;28.60
21275;DHT22;36472;52.170;20.884;2023-06-04T07:27:02;33.80;28.70
21275;DHT22;36472;52.170;20.884;2023-06-04T07:29:39;34.00;29.00
21275;DHT22;36472;52.170;20.884;2023-06-04T07:32:08;34.00;28.10
21275;DHT22;36472;52.170;20.884;2023-06-04T07:39:09;34.10;27.30
21275;DHT22;36472;52.170;20.884;2023-06-04T07:46:11;34.00;27.50
21275;DHT22;36472;52.170;20.884;2023-06-04T07:48:40;33.80;27.30
21275;DHT22;36472;52.170;20.884;2023-06-04T07:51:09;33.80;27.80
21275;DHT22;36472;52.170;20.884;2023-06-04T07:53:39;33.90;28.10
21275;DHT22;36472;52.170;20.884;2023-06-04T07:56:09;34.00;27.30
21275;DHT22;36472;52.170;20.884;2023-06-04T07:58:38;34.00;27.50
21275;DHT22;36472;52.170;20.884;2023-06-04T08:01:10;33.80;27.10
21275;DHT22;36472;52.170;20.884;2023-06-04T08:03:39;33.90;26.80
21275;DHT22;36472;52.170;20.884;2023-06-04T08:06:09;33.90;27.20
21275;DHT22;36472;52.170;20.884;2023-06-04T08:08:38;34.00;27.70
21275;DHT22;36472;52.170;20.884;2023-06-04T08:11:12;34.00;27.00
21275;DHT22;36472;52.170;20.884;2023-06-04T08:13:42;34.10;27.00
21275;DHT22;36472;52.170;20.884;2023-06-04T08:16:13;34.20;27.00
21275;DHT22;36472;52.170;20.884;2023-06-04T08:19:02;34.20;27.00
21275;DHT22;36472;52.170;20.884;2023-06-04T08:21:50;34.30;26.70
21275;DHT22;36472;52.170;20.884;2023-06-04T08:29:14;34.30;27.00
21275;DHT22;36472;52.170;20.884;2023-06-04T08:31:51;34.40;26.70
21275;DHT22;36472;52.170;20.884;2023-06-04T08:34:25;34.50;27.20
21275;DHT22;36472;52.170;20.884;2023-06-04T08:36:54;34.70;26.40
21275;DHT22;36472;52.170;20.884;2023-06-04T08:39:24;34.70;26.40
21275;DHT22;36472;52.170;20.884;2023-06-04T08:41:56;34.80;26.40
21275;DHT22;36472;52.170;20.884;2023-06-04T08:44:28;34.60;27.10
21275;DHT22;36472;52.170;20.884;2023-06-04T08:47:05;34.60;26.60
21275;DHT22;36472;52.170;20.884;2023-06-04T08:49:35;34.50;26.50
21275;DHT22;36472;52.170;20.884;2023-06-04T08:52:05;34.40;27.00
21275;DHT22;36472;52.170;20.884;2023-06-04T08:59:07;34.50;27.10
21275;DHT22;36472;52.170;20.884;2023-06-04T09:01:38;34.30;27.20
21275;DHT22;36472;52.170;20.884;2023-06-04T09:04:11;34.30;27.00
21275;DHT22;36472;52.170;20.884;2023-06-04T09:06:41;34.50;27.40
21275;DHT22;36472;52.170;20.884;2023-06-04T09:09:11;34.50;26.70
21275;DHT22;36472;52.170;20.884;2023-06-04T09:11:49;34.70;27.20
21275;DHT22;36472;52.170;20.884;2023-06-04T09:14:21;34.80;26.90
21275;DHT22;36472;52.170;20.884;2023-06-04T09:16:51;34.80;27.60
21275;DHT22;36472;52.170;20.884;2023-06-04T09:19:24;35.00;26.50
21275;DHT22;36472;52.170;20.884;2023-06-04T09:21:54;34.90;26.60
21275;DHT22;36472;52.170;20.884;2023-06-04T09:24:26;34.90;25.90
21275;DHT22;36472;52.170;20.884;2023-06-04T09:27:11;34.80;26.30
21275;DHT22;36472;52.170;20.884;2023-06-04T09:29:48;34.80;27.10
21275;DHT22;36472;52.170;20.884;2023-06-04T09:32:22;34.90;26.40
21275;DHT22;36472;52.170;20.884;2023-06-04T09:49:01;35.30;26.40
21275;DHT22;36472;52.170;20.884;2023-06-04T09:51:32;35.30;26.10
21275;DHT22;36472;52.170;20.884;2023-06-04T09:58:34;35.60;25.90
21275;DHT22;36472;52.170;20.884;2023-06-04T10:01:05;35.70;25.70
21275;DHT22;36472;52.170;20.884;2023-06-04T10:03:36;35.60;25.50
21275;DHT22;36472;52.170;20.884;2023-06-04T10:06:08;35.70;25.60
21275;DHT22;36472;52.170;20.884;2023-06-04T10:08:39;35.70;26.10
21275;DHT22;36472;52.170;20.884;2023-06-04T10:11:12;35.80;26.60
21275;DHT22;36472;52.170;20.884;2023-06-04T10:13:47;36.00;26.40
21275;DHT22;36472;52.170;20.884;2023-06-04T10:16:20;36.00;26.30
21275;DHT22;36472;52.170;20.884;2023-06-04T10:19:01;36.00;26.20
21275;DHT22;36472;52.170;20.884;2023-06-04T10:21:32;36.10;26.30
21275;DHT22;36472;52.170;20.884;2023-06-04T10:24:04;36.20;26.50
21275;DHT22;36472;52.170;20.884;2023-06-04T10:26:34;36.20;25.60
21275;DHT22;36472;52.170;20.884;2023-06-04T10:29:06;36.30;25.90
21275;DHT22;36472;52.170;20.884;2023-06-04T10:31:38;36.30;26.10
21275;DHT22;36472;52.170;20.884;2023-06-04T10:34:09;36.30;25.80
21275;DHT22;36472;52.170;20.884;2023-06-04T10:36:44;36.40;26.80
21275;DHT22;36472;52.170;20.884;2023-06-04T10:39:25;36.60;26.30
21275;DHT22;36472;52.170;20.884;2023-06-04T10:41:59;36.80;25.20
21275;DHT22;36472;52.170;20.884;2023-06-04T10:44:30;36.70;25.40
21275;DHT22;36472;52.170;20.884;2023-06-04T10:46:59;36.80;25.40
21275;DHT22;36472;52.170;20.884;2023-06-04T10:54:02;36.80;25.20
21275;DHT22;36472;52.170;20.884;2023-06-04T10:56:33;36.60;25.10
21275;DHT22;36472;52.170;20.884;2023-06-04T10:59:13;36.50;24.90
21275;DHT22;36472;52.170;20.884;2023-06-04T11:01:43;36.60;25.30
21275;DHT22;36472;52.170;20.884;2023-06-04T11:04:20;36.50;25.80
21275;DHT22;36472;52.170;20.884;2023-06-04T11:07:00;36.60;25.10
21275;DHT22;36472;52.170;20.884;2023-06-04T11:14:10;36.70;25.20
21275;DHT22;36472;52.170;20.884;2023-06-04T11:16:40;36.90;25.90
21275;DHT22;36472;52.170;20.884;2023-06-04T11:23:41;36.80;25.20
21275;DHT22;36472;52.170;20.884;2023-06-04T11:26:10;36.70;25.40
21275;DHT22;36472;52.170;20.884;2023-06-04T11:28:39;36.60;25.10
21275;DHT22;36472;52.170;20.884;2023-06-04T11:31:11;36.60;25.30
21275;DHT22;36472;52.170;20.884;2023-06-04T11:33:44;36.50;25.70
21275;DHT22;36472;52.170;20.884;2023-06-04T11:36:22;36.40;25.70
21275;DHT22;36472;52.170;20.884;2023-06-04T11:43:24;36.40;25.20
21275;DHT22;36472;52.170;20.884;2023-06-04T11:45:53;36.40;24.70
21275;DHT22;36472;52.170;20.884;2023-06-04T11:48:24;36.30;25.10
21275;DHT22;36472;52.170;20.884;2023-06-04T11:50:53;36.20;25.40
21275;DHT22;36472;52.170;20.884;2023-06-04T11:53:22;36.10;25.30
21275;DHT22;36472;52.170;20.884;2023-06-04T11:55:51;36.10;26.00
21275;DHT22;36472;52.170;20.884;2023-06-04T11:58:21;36.10;25.00
21275;DHT22;36472;52.170;20.884;2023-06-04T12:00:50;36.00;25.60
21275;DHT22;36472;52.170;20.884;2023-06-04T12:03:19;36.00;25.80
21275;DHT22;36472;52.170;20.884;2023-06-04T12:06:12;35.90;25.60
21275;DHT22;36472;52.170;20.884;2023-06-04T12:08:47;35.90;25.60
21275;DHT22;36472;52.170;20.884;2023-06-04T12:11:29;36.00;25.70
21275;DHT22;36472;52.170;20.884;2023-06-04T12:18:30;36.10;24.90
21275;DHT22;36472;52.170;20.884;2023-06-04T12:25:34;35.90;24.70
21275;DHT22;36472;52.170;20.884;2023-06-04T12:28:05;35.90;25.00
21275;DHT22;36472;52.170;20.884;2023-06-04T12:30:35;36.00;24.40
21275;DHT22;36472;52.170;20.884;2023-06-04T12:33:04;35.90;25.10
21275;DHT22;36472;52.170;20.884;2023-06-04T12:35:34;35.80;24.60
21275;DHT22;36472;52.170;20.884;2023-06-04T12:38:04;35.80;24.50
21275;DHT22;36472;52.170;20.884;2023-06-04T12:49:46;35.80;24.80
21275;DHT22;36472;52.170;20.884;2023-06-04T12:52:16;35.70;24.80
21275;DHT22;36472;52.170;20.884;2023-06-04T12:54:47;35.70;24.50
21275;DHT22;36472;52.170;20.884;2023-06-04T12:57:16;35.70;24.90
21275;DHT22;36472;52.170;20.884;2023-06-04T12:59:46;35.70;24.80
21275;DHT22;36472;52.170;20.884;2023-06-04T13:02:14;35.70;24.40
21275;DHT22;36472;52.170;20.884;2023-06-04T13:04:45;35.70;25.00
21275;DHT22;36472;52.170;20.884;2023-06-04T13:07:14;35.70;25.20
21275;DHT22;36472;52.170;20.884;2023-06-04T13:09:43;35.70;25.40
21275;DHT22;36472;52.170;20.884;2023-06-04T13:12:12;35.70;24.50
21275;DHT22;36472;52.170;20.884;2023-06-04T13:14:42;35.80;24.40
21275;DHT22;36472;52.170;20.884;2023-06-04T13:17:11;35.70;24.30
21275;DHT22;36472;52.170;20.884;2023-06-04T13:19:49;35.70;24.40
21275;DHT22;36472;52.170;20.884;2023-06-04T13:22:19;35.70;24.80
21275;DHT22;36472;52.170;20.884;2023-06-04T13:24:48;35.70;25.00
21275;DHT22;36472;52.170;20.884;2023-06-04T13:27:17;35.80;24.90
21275;DHT22;36472;52.170;20.884;2023-06-04T13:29:46;35.90;24.90
21275;DHT22;36472;52.170;20.884;2023-06-04T13:32:15;35.90;24.50
21275;DHT22;36472;52.170;20.884;2023-06-04T13:34:44;35.90;24.90
21275;DHT22;36472;52.170;20.884;2023-06-04T13:37:14;35.90;24.60
21275;DHT22;36472;52.170;20.884;2023-06-04T13:39:43;35.90;24.70
21275;DHT22;36472;52.170;20.884;2023-06-04T13:42:12;36.00;25.50
21275;DHT22;36472;52.170;20.884;2023-06-04T13:44:41;36.00;25.50
21275;DHT22;36472;52.170;20.884;2023-06-04T13:47:10;36.10;25.40
21275;DHT22;36472;52.170;20.884;2023-06-04T13:49:39;36.10;25.40
21275;DHT22;36472;52.170;20.884;2023-06-04T13:52:08;36.20;25.10
21275;DHT22;36472;52.170;20.884;2023-06-04T13:54:38;36.20;25.40
21275;DHT22;36472;52.170;20.884;2023-06-04T13:57:07;36.40;24.70
21275;DHT22;36472;52.170;20.884;2023-06-04T13:59:39;36.40;24.70
21275;DHT22;36472;52.170;20.884;2023-06-04T14:02:08;36.30;24.70
21275;DHT22;36472;52.170;20.884;2023-06-04T14:04:37;36.30;25.60
21275;DHT22;36472;52.170;20.884;2023-06-04T14:07:06;36.30;25.50
21275;DHT22;36472;52.170;20.884;2023-06-04T14:09:35;36.30;25.10
21275;DHT22;36472;52.170;20.884;2023-06-04T14:12:06;36.30;25.20
21275;DHT22;36472;52.170;20.884;2023-06-04T14:14:36;36.30;24.80
21275;DHT22;36472;52.170;20.884;2023-06-04T14:17:05;36.30;25.60
21275;DHT22;36472;52.170;20.884;2023-06-04T14:19:35;36.30;24.70
21275;DHT22;36472;52.170;20.884;2023-06-04T14:22:04;36.30;24.90
21275;DHT22;36472;52.170;20.884;2023-06-04T14:24:33;36.30;24.70
21275;DHT22;36472;52.170;20.884;2023-06-04T14:27:02;36.40;24.60
21275;DHT22;36472;52.170;20.884;2023-06-04T14:29:34;36.40;24.50
21275;DHT22;36472;52.170;20.884;2023-06-04T14:32:06;36.30;24.50
21275;DHT22;36472;52.170;20.884;2023-06-04T14:34:35;36.30;24.60
21275;DHT22;36472;52.170;20.884;2023-06-04T14:37:04;36.30;25.20
21275;DHT22;36472;52.170;20.884;2023-06-04T14:39:33;36.40;24.90
21275;DHT22;36472;52.170;20.884;2023-06-04T14:42:04;36.40;24.70
21275;DHT22;36472;52.170;20.884;2023-06-04T14:44:35;36.40;24.70
21275;DHT22;36472;52.170;20.884;2023-06-04T14:51:36;36.40;24.80
21275;DHT22;36472;52.170;20.884;2023-06-04T14:54:05;36.40;25.10
21275;DHT22;36472;52.170;20.884;2023-06-04T14:56:34;36.40;24.90
21275;DHT22;36472;52.170;20.884;2023-06-04T14:59:03;36.40;25.20
21275;DHT22;36472;52.170;20.884;2023-06-04T15:01:38;36.40;25.20
21275;DHT22;36472;52.170;20.884;2023-06-04T15:04:08;36.30;25.20
21275;DHT22;36472;52.170;20.884;2023-06-04T15:06:37;36.30;25.30
21275;DHT22;36472;52.170;20.884;2023-06-04T15:09:06;36.30;24.60
21275;DHT22;36472;52.170;20.884;2023-06-04T15:11:35;36.30;24.50
21275;DHT22;36472;52.170;20.884;2023-06-04T15:14:04;36.40;24.70
21275;DHT22;36472;52.170;20.884;2023-06-04T15:16:33;36.40;24.40
21275;DHT22;36472;52.170;20.884;2023-06-04T15:19:03;36.40;24.50
21275;DHT22;36472;52.170;20.884;2023-06-04T15:21:33;36.50;24.40
21275;DHT22;36472;52.170;20.884;2023-06-04T15:24:02;36.60;24.40
21275;DHT22;36472;52.170;20.884;2023-06-04T15:26:31;36.60;24.20
21275;DHT22;36472;52.170;20.884;2023-06-04T15:29:00;36.60;24.00
21275;DHT22;36472;52.170;20.884;2023-06-04T15:31:29;36.60;23.60
21275;DHT22;36472;52.170;20.884;2023-06-04T15:33:58;36.50;23.70
21275;DHT22;36472;52.170;20.884;2023-06-04T15:36:29;36.50;23.60
21275;DHT22;36472;52.170;20.884;2023-06-04T15:38:58;36.50;24.10
21275;DHT22;36472;52.170;20.884;2023-06-04T15:41:27;36.50;23.80
21275;DHT22;36472;52.170;20.884;2023-06-04T15:43:56;36.50;24.50
21275;DHT22;36472;52.170;20.884;2023-06-04T16:09:06;31.20;25.70
21275;DHT22;36472;52.170;20.884;2023-06-04T16:11:35;34.80;25.70
21275;DHT22;36472;52.170;20.884;2023-06-04T16:14:04;35.20;27.00
21275;DHT22;36472;52.170;20.884;2023-06-04T16:16:34;35.70;26.50
21275;DHT22;36472;52.170;20.884;2023-06-04T16:19:02;35.90;25.20
21275;DHT22;36472;52.170;20.884;2023-06-04T16:21:32;36.20;25.00
21275;DHT22;36472;52.170;20.884;2023-06-04T16:24:02;36.30;24.80
21275;DHT22;36472;52.170;20.884;2023-06-04T16:26:32;36.40;24.70
21275;DHT22;36472;52.170;20.884;2023-06-04T16:29:01;36.50;25.00
21275;DHT22;36472;52.170;20.884;2023-06-04T16:31:31;36.50;25.40
21275;DHT22;36472;52.170;20.884;2023-06-04T16:34:00;36.60;24.30
21275;DHT22;36472;52.170;20.884;2023-06-04T16:36:29;36.60;24.40
21275;DHT22;36472;52.170;20.884;2023-06-04T16:39:00;36.60;24.50
21275;DHT22;36472;52.170;20.884;2023-06-04T16:41:29;36.60;24.20
21275;DHT22;36472;52.170;20.884;2023-06-04T16:44:00;36.60;24.40
21275;DHT22;36472;52.170;20.884;2023-06-04T16:46:29;36.60;24.70
21275;DHT22;36472;52.170;20.884;2023-06-04T16:48:58;36.50;24.70
21275;DHT22;36472;52.170;20.884;2023-06-04T16:51:27;36.50;24.50
21275;DHT22;36472;52.170;20.884;2023-06-04T16:53:56;36.50;24.60
21275;DHT22;36472;52.170;20.884;2023-06-04T16:56:26;36.40;24.50
21275;DHT22;36472;52.170;20.884;2023-06-04T16:58:55;36.40;24.60
21275;DHT22;36472;52.170;20.884;2023-06-04T17:01:25;36.40;24.50
21275;DHT22;36472;52.170;20.884;2023-06-04T17:03:54;36.50;25.60
21275;DHT22;36472;52.170;20.884;2023-06-04T17:06:23;36.40;25.60
21275;DHT22;36472;52.170;20.884;2023-06-04T17:08:54;36.50;26.30
21275;DHT22;36472;52.170;20.884;2023-06-04T17:11:23;36.40;25.90
21275;DHT22;36472;52.170;20.884;2023-06-04T17:13:53;36.30;24.90
21275;DHT22;36472;52.170;20.884;2023-06-04T17:16:22;36.30;24.90
21275;DHT22;36472;52.170;20.884;2023-06-04T17:18:54;36.30;25.10
21275;DHT22;36472;52.170;20.884;2023-06-04T17:21:23;36.20;24.80
21275;DHT22;36472;52.170;20.884;2023-06-04T17:23:52;36.20;24.80
21275;DHT22;36472;52.170;20.884;2023-06-04T17:26:21;36.20;25.20
21275;DHT22;36472;52.170;20.884;2023-06-04T17:28:50;36.10;26.40
21275;DHT22;36472;52.170;20.884;2023-06-04T17:31:19;36.10;26.50
21275;DHT22;36472;52.170;20.884;2023-06-04T17:33:50;36.10;27.10
21275;DHT22;36472;52.170;20.884;2023-06-04T17:36:20;36.00;26.70
21275;DHT22;36472;52.170;20.884;2023-06-04T17:38:50;35.90;27.00
21275;DHT22;36472;52.170;20.884;2023-06-04T17:41:19;35.90;27.00